createdAt,value
2018-02-23T00:00:37.665Z,-2.30
2018-02-23T00:03:06.065Z,-2.20
2018-02-23T00:05:33.715Z,-2.20
2018-02-23T00:08:01.336Z,-2.20
2018-02-23T00:10:38.952Z,-2.20
2018-02-23T00:13:06.592Z,-2.10
2018-02-23T00:15:34.223Z,-2.10
2018-02-23T00:18:01.887Z,-2.10
2018-02-23T00:20:30.269Z,-2.00
2018-02-23T00:22:58.675Z,-2.00
2018-02-23T00:25:26.308Z,-2.10
2018-02-23T00:27:54.729Z,-2.10
2018-02-23T00:30:22.396Z,-2.10
2018-02-23T00:32:50.756Z,-2.20
2018-02-23T00:35:18.393Z,-2.20
2018-02-23T00:37:46.792Z,-2.30
2018-02-23T00:40:15.196Z,-2.30
2018-02-23T00:42:43.749Z,-2.40
2018-02-23T00:45:11.741Z,-2.30
2018-02-23T00:47:40.149Z,-2.30
2018-02-23T00:50:07.778Z,-2.30
2018-02-23T00:52:35.412Z,-2.30
2018-02-23T00:55:03.050Z,-2.40
2018-02-23T00:57:30.675Z,-2.50
2018-02-23T00:59:58.670Z,-2.50
2018-02-23T01:02:27.075Z,-2.50
2018-02-23T01:05:00.029Z,-2.50
2018-02-23T01:07:28.434Z,-2.40
2018-02-23T01:09:56.824Z,-2.40
2018-02-23T01:12:24.460Z,-2.40
2018-02-23T01:14:52.856Z,-2.40
2018-02-23T01:17:21.254Z,-2.40
2018-02-23T01:19:48.896Z,-2.40
2018-02-23T01:24:52.209Z,-2.50
2018-02-23T01:27:19.833Z,-2.40
2018-02-23T01:29:47.462Z,-2.40
2018-02-23T01:32:15.101Z,-2.40
2018-02-23T01:34:42.732Z,-2.50
2018-02-23T01:37:10.376Z,-2.50
2018-02-23T01:39:38.317Z,-2.50
2018-02-23T01:42:06.724Z,-2.60
2018-02-23T01:44:34.385Z,-2.60
2018-02-23T01:47:02.359Z,-2.50
2018-02-23T01:49:29.992Z,-2.50
2018-02-23T01:51:57.624Z,-2.60
2018-02-23T01:54:25.280Z,-2.60
2018-02-23T01:56:52.922Z,-2.60
2018-02-23T01:59:20.565Z,-2.70
2018-02-23T02:01:48.602Z,-2.70
2018-02-23T02:04:16.240Z,-2.70
2018-02-23T02:06:43.880Z,-2.70
2018-02-23T02:09:11.536Z,-2.70
2018-02-23T02:11:39.191Z,-2.80
2018-02-23T02:14:06.839Z,-2.90
2018-02-23T02:16:34.464Z,-2.90
2018-02-23T02:19:02.097Z,-2.80
2018-02-23T02:21:29.740Z,-2.80
2018-02-23T02:23:57.741Z,-2.70
2018-02-23T02:26:25.377Z,-2.70
2018-02-23T02:28:53.065Z,-2.70
2018-02-23T02:31:20.705Z,-2.70
2018-02-23T02:33:48.377Z,-2.90
2018-02-23T02:36:16.016Z,-2.80
2018-02-23T02:38:43.674Z,-2.80
2018-02-23T02:41:12.239Z,-2.90
2018-02-23T02:43:40.644Z,-2.90
2018-02-23T02:46:08.302Z,-3.00
2018-02-23T02:48:35.946Z,-2.90
2018-02-23T02:51:03.568Z,-3.00
2018-02-23T02:53:31.208Z,-3.00
2018-02-23T02:55:58.847Z,-3.00
2018-02-23T02:58:27.254Z,-2.90
2018-02-23T03:00:55.085Z,-3.00
2018-02-23T03:03:22.777Z,-2.90
2018-02-23T03:05:51.176Z,-2.90
2018-02-23T03:08:32.853Z,-2.90
2018-02-23T03:11:00.824Z,-3.00
2018-02-23T03:13:29.221Z,-2.90
2018-02-23T03:15:56.868Z,-2.90
2018-02-23T03:18:24.488Z,-3.10
2018-02-23T03:20:52.126Z,-3.10
2018-02-23T03:23:19.761Z,-3.10
2018-02-23T03:25:48.180Z,-3.10
2018-02-23T03:28:15.868Z,-3.10
2018-02-23T03:30:43.513Z,-3.20
2018-02-23T03:33:11.144Z,-3.30
2018-02-23T03:35:40.562Z,-3.20
2018-02-23T03:38:08.972Z,-3.10
2018-02-23T03:40:36.609Z,-3.10
2018-02-23T03:43:05.008Z,-3.00
2018-02-23T03:45:32.652Z,-3.00
2018-02-23T03:48:01.068Z,-3.00
2018-02-23T03:50:28.708Z,-3.00
2018-02-23T03:52:57.113Z,-3.10
2018-02-23T03:55:24.755Z,-3.10
2018-02-23T03:57:52.389Z,-3.00
2018-02-23T04:00:20.176Z,-3.00
2018-02-23T04:02:47.802Z,-3.00
2018-02-23T04:05:15.471Z,-2.90
2018-02-23T04:07:43.829Z,-2.90
2018-02-23T04:10:11.455Z,-2.90
2018-02-23T04:12:39.102Z,-2.90
2018-02-23T04:15:06.728Z,-3.00
2018-02-23T04:17:34.356Z,-3.00
2018-02-23T04:20:16.898Z,-3.10
2018-02-23T04:22:44.528Z,-3.10
2018-02-23T04:25:12.148Z,-3.10
2018-02-23T04:27:39.791Z,-3.10
2018-02-23T04:30:08.198Z,-3.20
2018-02-23T04:32:35.844Z,-3.30
2018-02-23T04:35:03.473Z,-3.20
2018-02-23T04:37:31.164Z,-3.30
2018-02-23T04:39:59.565Z,-3.20
2018-02-23T04:42:28.129Z,-3.20
2018-02-23T04:44:56.520Z,-3.20
2018-02-23T04:47:24.924Z,-3.10
2018-02-23T04:49:52.578Z,-3.20
2018-02-23T04:52:20.979Z,-3.10
2018-02-23T04:54:48.608Z,-3.10
2018-02-23T04:57:17.220Z,-3.00
2018-02-23T04:59:44.853Z,-3.00
2018-02-23T05:02:12.517Z,-2.90
2018-02-23T05:04:41.132Z,-2.80
2018-02-23T05:07:09.529Z,-2.70
2018-02-23T05:09:37.156Z,-2.70
2018-02-23T05:12:04.796Z,-2.60
2018-02-23T05:14:36.380Z,-2.60
2018-02-23T05:17:04.016Z,-2.70
2018-02-23T05:19:31.663Z,-2.70
2018-02-23T05:21:59.284Z,-2.70
2018-02-23T05:24:26.939Z,-2.70
2018-02-23T05:26:54.568Z,-2.70
2018-02-23T05:29:22.272Z,-2.70
2018-02-23T05:31:49.888Z,-2.70
2018-02-23T05:34:18.268Z,-2.70
2018-02-23T05:36:45.916Z,-2.80
2018-02-23T05:39:14.308Z,-2.80
2018-02-23T05:41:58.872Z,-2.70
2018-02-23T05:44:26.503Z,-2.70
2018-02-23T05:46:54.908Z,-2.80
2018-02-23T05:49:23.300Z,-2.80
2018-02-23T05:51:50.942Z,-2.80
2018-02-23T05:54:18.564Z,-2.80
2018-02-23T05:56:46.208Z,-2.80
2018-02-23T05:59:13.844Z,-2.70
2018-02-23T06:01:42.249Z,-2.70
2018-02-23T06:04:09.884Z,-2.70
2018-02-23T06:06:38.286Z,-2.60
2018-02-23T06:09:05.926Z,-2.60
2018-02-23T06:11:33.554Z,-2.60
2018-02-23T06:14:01.192Z,-2.50
2018-02-23T06:16:28.866Z,-2.50
2018-02-23T06:18:56.485Z,-2.50
2018-02-23T06:21:24.135Z,-2.50
2018-02-23T06:23:51.772Z,-2.50
2018-02-23T06:26:19.400Z,-2.50
2018-02-23T06:28:47.797Z,-2.40
2018-02-23T06:31:16.191Z,-2.40
2018-02-23T06:33:43.836Z,-2.40
2018-02-23T06:36:12.243Z,-2.40
2018-02-23T06:38:39.874Z,-2.40
2018-02-23T06:41:07.504Z,-2.40
2018-02-23T06:43:35.137Z,-2.30
2018-02-23T06:46:02.776Z,-2.30
2018-02-23T06:48:30.425Z,-2.20
2018-02-23T06:50:58.036Z,-2.20
2018-02-23T06:53:25.668Z,-2.20
2018-02-23T06:55:53.321Z,-2.20
2018-02-23T06:58:20.956Z,-2.10
2018-02-23T07:00:48.578Z,-2.20
2018-02-23T07:03:16.976Z,-2.20
2018-02-23T07:05:45.368Z,-2.10
2018-02-23T07:08:13.000Z,-2.10
2018-02-23T07:10:47.391Z,-2.10
2018-02-23T07:13:15.008Z,-2.10
2018-02-23T07:15:43.405Z,-2.10
2018-02-23T07:18:11.052Z,-2.10
2018-02-23T07:20:39.446Z,-2.10
2018-02-23T07:23:07.839Z,-2.10
2018-02-23T07:25:35.486Z,-2.10
2018-02-23T07:28:03.145Z,-2.00
2018-02-23T07:30:30.769Z,-2.00
2018-02-23T07:32:58.416Z,-2.00
2018-02-23T07:35:26.068Z,-2.00
2018-02-23T07:37:53.684Z,-1.90
2018-02-23T07:40:21.689Z,-1.90
2018-02-23T07:42:49.329Z,-1.80
2018-02-23T07:45:16.964Z,-1.80
2018-02-23T07:47:44.900Z,-1.70
2018-02-23T07:50:13.296Z,-1.60
2018-02-23T07:52:40.944Z,-1.60
2018-02-23T07:55:09.337Z,-1.50
2018-02-23T07:57:37.804Z,-1.50
2018-02-23T08:00:05.436Z,-1.50
2018-02-23T08:02:33.060Z,-1.50
2018-02-23T08:05:00.689Z,-1.40
2018-02-23T08:07:28.316Z,-1.40
2018-02-23T08:09:55.956Z,-1.30
2018-02-23T08:12:24.345Z,-1.40
2018-02-23T08:14:51.968Z,-1.30
2018-02-23T08:17:21.102Z,-1.30
2018-02-23T08:19:49.496Z,-1.20
2018-02-23T08:22:17.137Z,-1.20
2018-02-23T08:24:45.132Z,-1.20
2018-02-23T08:27:12.765Z,-1.20
2018-02-23T08:29:40.392Z,-1.10
2018-02-23T08:32:08.029Z,-1.10
2018-02-23T08:34:35.773Z,-1.00
2018-02-23T08:37:03.368Z,-0.90
2018-02-23T08:39:31.016Z,-0.90
2018-02-23T08:41:59.412Z,-0.80
2018-02-23T08:44:27.055Z,-0.80
2018-02-23T08:46:54.690Z,-0.80
2018-02-23T08:49:22.311Z,-0.70
2018-02-23T08:51:49.948Z,-0.70
2018-02-23T08:54:17.572Z,-0.60
2018-02-23T08:56:45.204Z,-0.60
2018-02-23T08:59:12.832Z,-0.50
2018-02-23T09:01:40.478Z,-0.40
2018-02-23T09:04:08.089Z,-0.30
2018-02-23T09:06:36.491Z,-0.30
2018-02-23T09:09:04.116Z,-0.30
2018-02-23T09:11:33.257Z,-0.20
2018-02-23T09:14:00.905Z,-0.20
2018-02-23T09:16:29.305Z,0.00
2018-02-23T09:18:56.942Z,0.00
2018-02-23T09:21:24.612Z,0.20
2018-02-23T09:23:52.235Z,0.30
2018-02-23T09:26:19.888Z,0.40
2018-02-23T09:28:48.256Z,0.70
2018-02-23T09:31:15.897Z,0.60
2018-02-23T09:33:55.413Z,0.80
2018-02-23T09:36:23.035Z,0.80
2018-02-23T09:38:51.884Z,1.10
2018-02-23T09:41:19.448Z,1.10
2018-02-23T09:43:47.088Z,1.10
2018-02-23T09:46:14.715Z,1.20
2018-02-23T09:48:42.344Z,1.20
2018-02-23T09:51:09.965Z,1.10
2018-02-23T09:53:37.587Z,1.20
2018-02-23T09:56:06.397Z,1.60
2018-02-23T09:58:34.793Z,1.70
2018-02-23T10:01:02.416Z,1.60
2018-02-23T10:03:30.040Z,1.50
2018-02-23T10:05:57.660Z,1.60
2018-02-23T10:08:25.272Z,1.60
2018-02-23T10:10:52.962Z,1.70
2018-02-23T10:13:20.524Z,2.00
2018-02-23T10:15:48.136Z,2.00
2018-02-23T10:18:16.524Z,2.20
2018-02-23T10:20:44.912Z,2.20
2018-02-23T10:23:13.311Z,2.30
2018-02-23T10:25:41.708Z,2.50
2018-02-23T10:28:09.348Z,2.50
2018-02-23T10:30:36.976Z,2.50
2018-02-23T10:33:04.596Z,2.30
2018-02-23T10:35:32.442Z,2.40
2018-02-23T10:38:00.824Z,2.60
2018-02-23T10:40:29.211Z,2.70
2018-02-23T10:42:57.615Z,3.00
2018-02-23T10:45:25.240Z,2.90
2018-02-23T10:47:52.860Z,3.10
2018-02-23T10:50:20.483Z,3.20
2018-02-23T10:52:48.102Z,3.20
2018-02-23T10:55:15.712Z,3.40
2018-02-23T10:57:44.158Z,3.50
2018-02-23T11:00:12.504Z,3.40
2018-02-23T11:02:40.917Z,3.30
2018-02-23T11:05:08.545Z,3.30
2018-02-23T11:07:36.942Z,3.80
2018-02-23T11:10:04.564Z,3.70
2018-02-23T11:12:32.201Z,3.80
2018-02-23T11:14:59.844Z,3.80
2018-02-23T11:17:28.221Z,3.90
2018-02-23T11:19:55.852Z,3.90
2018-02-23T11:22:23.476Z,3.90
2018-02-23T11:24:51.116Z,4.00
2018-02-23T11:27:18.735Z,3.90
2018-02-23T11:29:46.363Z,4.10
2018-02-23T11:32:13.980Z,4.10
2018-02-23T11:34:41.602Z,4.00
2018-02-23T11:37:09.212Z,4.30
2018-02-23T11:39:36.841Z,4.20
2018-02-23T11:42:04.448Z,4.40
2018-02-23T11:44:32.862Z,4.70
2018-02-23T11:47:00.486Z,4.70
2018-02-23T11:49:28.092Z,4.70
2018-02-23T11:51:55.712Z,4.80
2018-02-23T11:54:23.340Z,4.70
2018-02-23T11:56:50.965Z,4.90
2018-02-23T11:59:19.364Z,5.20
2018-02-23T12:01:47.017Z,5.20
2018-02-23T12:04:15.421Z,5.40
2018-02-23T12:06:43.042Z,5.40
2018-02-23T12:09:10.677Z,5.50
2018-02-23T12:11:38.289Z,5.60
2018-02-23T12:14:05.928Z,5.60
2018-02-23T12:16:33.559Z,5.70
2018-02-23T12:19:01.204Z,5.80
2018-02-23T12:21:29.639Z,6.10
2018-02-23T12:23:57.226Z,6.00
2018-02-23T12:26:24.860Z,6.10
2018-02-23T12:28:52.489Z,6.60
2018-02-23T12:31:20.908Z,7.20
2018-02-23T12:33:48.537Z,7.20
2018-02-23T12:36:16.932Z,7.70
2018-02-23T12:38:44.545Z,7.70
2018-02-23T12:41:12.164Z,8.00
2018-02-23T12:43:39.782Z,8.30
2018-02-23T12:46:07.412Z,8.10
2018-02-23T12:48:35.031Z,8.10
2018-02-23T12:51:03.427Z,8.40
2018-02-23T12:53:31.821Z,8.80
2018-02-23T12:55:59.457Z,8.90
2018-02-23T12:58:27.072Z,9.00
2018-02-23T13:00:54.716Z,8.70
2018-02-23T13:03:22.384Z,8.80
2018-02-23T13:05:50.047Z,8.80
2018-02-23T13:08:18.432Z,8.30
2018-02-23T13:10:46.061Z,8.30
2018-02-23T13:13:13.679Z,8.10
2018-02-23T13:15:41.316Z,8.30
2018-02-23T13:18:09.709Z,8.50
2018-02-23T13:20:38.094Z,8.40
2018-02-23T13:23:06.497Z,9.20
2018-02-23T13:25:34.116Z,9.20
2018-02-23T13:28:01.849Z,9.30
2018-02-23T13:30:29.471Z,9.50
2018-02-23T13:32:57.867Z,9.00
2018-02-23T13:35:25.489Z,9.00
2018-02-23T13:37:53.108Z,9.20
2018-02-23T13:40:20.748Z,8.30
2018-02-23T13:42:49.156Z,7.70
2018-02-23T13:45:16.804Z,7.70
2018-02-23T13:47:45.196Z,8.50
2018-02-23T13:50:12.812Z,8.50
2018-02-23T13:52:40.440Z,8.30
2018-02-23T13:55:08.053Z,8.20
2018-02-23T13:57:35.673Z,8.30
2018-02-23T14:00:03.322Z,8.50
2018-02-23T14:02:31.704Z,8.70
2018-02-23T14:04:59.334Z,8.70
2018-02-23T14:07:26.975Z,9.00
2018-02-23T14:09:54.597Z,8.60
2018-02-23T14:12:23.007Z,7.90
2018-02-23T14:14:50.631Z,7.90
2018-02-23T14:17:18.289Z,7.80
2018-02-23T14:19:45.941Z,7.30
2018-02-23T14:22:13.564Z,7.30
2018-02-23T14:24:41.182Z,7.80
2018-02-23T14:27:08.806Z,8.70
2018-02-23T14:29:36.424Z,8.50
2018-02-23T14:32:04.046Z,8.30
2018-02-23T14:34:31.670Z,8.20
2018-02-23T14:37:00.061Z,7.50
2018-02-23T14:39:28.449Z,6.90
2018-02-23T14:41:56.084Z,6.90
2018-02-23T14:44:23.774Z,6.40
2018-02-23T14:46:52.160Z,5.70
2018-02-23T14:49:19.788Z,5.70
2018-02-23T14:51:47.405Z,5.40
2018-02-23T14:54:15.027Z,5.50
2018-02-23T14:56:42.648Z,4.90
2018-02-23T14:59:10.312Z,4.80
2018-02-23T15:01:39.096Z,4.60
2018-02-23T15:04:06.725Z,4.50
2018-02-23T15:06:34.340Z,4.30
2018-02-23T15:09:01.952Z,4.20
2018-02-23T15:11:29.584Z,4.10
2018-02-23T15:13:57.204Z,3.90
2018-02-23T15:16:25.592Z,3.60
2018-02-23T15:18:53.984Z,3.60
2018-02-23T15:21:21.600Z,3.50
2018-02-23T15:23:49.228Z,3.60
2018-02-23T15:26:16.848Z,3.60
2018-02-23T15:28:44.464Z,3.50
2018-02-23T15:31:23.980Z,3.50
2018-02-23T15:33:51.600Z,3.40
2018-02-23T15:36:19.225Z,3.20
2018-02-23T15:38:46.848Z,3.30
2018-02-23T15:41:14.469Z,3.10
2018-02-23T15:43:42.190Z,3.10
2018-02-23T15:46:10.205Z,3.00
2018-02-23T15:48:37.819Z,3.00
2018-02-23T15:51:05.448Z,3.00
2018-02-23T15:53:33.068Z,3.00
2018-02-23T15:56:01.460Z,2.80
2018-02-23T15:58:29.851Z,2.70
2018-02-23T16:00:57.482Z,2.70
2018-02-23T16:03:25.483Z,2.70
2018-02-23T16:05:53.116Z,2.60
2018-02-23T16:08:20.745Z,2.60
2018-02-23T16:10:48.395Z,2.50
2018-02-23T16:13:16.021Z,2.50
2018-02-23T16:15:44.755Z,2.40
2018-02-23T16:18:12.377Z,2.30
2018-02-23T16:20:40.014Z,2.30
2018-02-23T16:23:07.657Z,2.20
2018-02-23T16:25:35.269Z,2.20
2018-02-23T16:28:02.980Z,2.20
2018-02-23T16:30:30.615Z,2.20
2018-02-23T16:32:58.652Z,2.10
2018-02-23T16:35:26.276Z,2.00
2018-02-23T16:37:53.895Z,2.00
2018-02-23T16:40:21.525Z,1.90
2018-02-23T16:42:49.131Z,1.90
2018-02-23T16:45:16.749Z,1.90
2018-02-23T16:47:44.396Z,1.90
2018-02-23T16:50:11.985Z,1.80
2018-02-23T16:52:39.616Z,1.80
2018-02-23T16:55:07.257Z,1.70
2018-02-23T16:57:34.898Z,1.60
2018-02-23T17:00:02.841Z,1.50
2018-02-23T17:02:30.499Z,1.50
2018-02-23T17:04:58.105Z,1.50
2018-02-23T17:07:25.751Z,1.40
2018-02-23T17:09:54.132Z,1.30
2018-02-23T17:12:21.757Z,1.30
2018-02-23T17:14:49.958Z,1.30
2018-02-23T17:17:18.344Z,1.20
2018-02-23T17:19:46.735Z,1.20
2018-02-23T17:22:15.120Z,1.10
2018-02-23T17:24:42.744Z,1.10
2018-02-23T17:27:10.355Z,1.00
2018-02-23T17:29:37.980Z,1.00
2018-02-23T17:32:05.603Z,0.90
2018-02-23T17:34:33.230Z,0.90
2018-02-23T17:37:01.633Z,0.90
2018-02-23T17:39:30.016Z,0.80
2018-02-23T17:41:57.636Z,0.80
2018-02-23T17:44:25.308Z,0.60
2018-02-23T17:46:52.893Z,0.60
2018-02-23T17:49:21.280Z,0.60
2018-02-23T17:51:49.668Z,0.60
2018-02-23T17:54:18.057Z,0.60
2018-02-23T17:56:45.705Z,0.50
2018-02-23T17:59:13.305Z,0.50
2018-02-23T18:01:40.920Z,0.50
2018-02-23T18:04:08.539Z,0.50
2018-02-23T18:06:36.256Z,0.40
2018-02-23T18:09:03.829Z,0.40
2018-02-23T18:11:31.464Z,0.30
2018-02-23T18:13:59.096Z,0.30
2018-02-23T18:16:26.744Z,0.30
2018-02-23T18:18:55.227Z,0.20
2018-02-23T18:21:22.760Z,0.20
2018-02-23T18:23:50.388Z,0.20
2018-02-23T18:26:18.005Z,0.20
2018-02-23T18:28:45.628Z,0.10
2018-02-23T18:31:13.262Z,0.10
2018-02-23T18:33:41.654Z,0.00
2018-02-23T18:36:09.296Z,0.00
2018-02-23T18:38:37.716Z,-0.10
2018-02-23T18:41:05.348Z,-0.10
2018-02-23T18:43:33.376Z,-0.10
2018-02-23T18:46:01.008Z,-0.10
2018-02-23T18:48:28.649Z,-0.20
2018-02-23T18:50:56.293Z,-0.20
2018-02-23T18:53:23.931Z,-0.20
2018-02-23T18:55:51.881Z,-0.20
2018-02-23T18:58:20.276Z,-0.30
2018-02-23T19:00:48.317Z,-0.30
2018-02-23T19:03:16.715Z,-0.30
2018-02-23T19:05:44.341Z,-0.30
2018-02-23T19:08:11.982Z,-0.30
2018-02-23T19:10:39.667Z,-0.40
2018-02-23T19:13:07.308Z,-0.40
2018-02-23T19:15:34.937Z,-0.40
2018-02-23T19:18:02.581Z,-0.40
2018-02-23T19:20:30.208Z,-0.50
2018-02-23T19:22:57.856Z,-0.50
2018-02-23T19:25:25.488Z,-0.50
2018-02-23T19:27:53.120Z,-0.50
2018-02-23T19:30:20.753Z,-0.60
2018-02-23T19:32:48.392Z,-0.60
2018-02-23T19:35:16.024Z,-0.50
2018-02-23T19:37:43.677Z,-0.60
2018-02-23T19:40:11.351Z,-0.60
2018-02-23T19:42:38.976Z,-0.70
2018-02-23T19:45:07.379Z,-0.80
2018-02-23T19:47:35.026Z,-0.80
2018-02-23T19:50:02.672Z,-0.80
2018-02-23T19:52:31.365Z,-0.80
2018-02-23T19:54:59.003Z,-0.80
2018-02-23T19:57:26.632Z,-0.80
2018-02-23T19:59:54.270Z,-0.90
2018-02-23T20:02:23.540Z,-0.90
2018-02-23T20:04:51.180Z,-0.90
2018-02-23T20:07:18.834Z,-0.90
2018-02-23T20:09:46.479Z,-1.00
2018-02-23T20:12:14.891Z,-1.00
2018-02-23T20:14:42.538Z,-1.10
2018-02-23T20:17:10.188Z,-1.10
2018-02-23T20:19:38.575Z,-1.10
2018-02-23T20:22:06.972Z,-1.10
2018-02-23T20:24:34.629Z,-1.10
2018-02-23T20:27:03.050Z,-1.20
2018-02-23T20:29:30.711Z,-1.20
2018-02-23T20:31:58.341Z,-1.20
2018-02-23T20:34:26.741Z,-1.30
2018-02-23T20:36:54.380Z,-1.30
2018-02-23T20:39:22.027Z,-1.30
2018-02-23T20:41:49.664Z,-1.30
2018-02-23T20:44:17.688Z,-1.40
2018-02-23T20:46:46.108Z,-1.40
2018-02-23T20:49:13.756Z,-1.40
2018-02-23T20:51:42.188Z,-1.50
2018-02-23T20:54:09.848Z,-1.50
2018-02-23T20:56:37.480Z,-1.50
2018-02-23T20:59:05.117Z,-1.50
2018-02-23T21:01:32.761Z,-1.60
2018-02-23T21:04:00.817Z,-1.50
2018-02-23T21:06:28.453Z,-1.50
2018-02-23T21:08:56.120Z,-1.60
2018-02-23T21:11:23.753Z,-1.60
2018-02-23T21:13:51.416Z,-1.60
2018-02-23T21:16:19.812Z,-1.60
2018-02-23T21:18:47.476Z,-1.70
2018-02-23T21:21:15.114Z,-1.60
2018-02-23T21:23:42.744Z,-1.70
2018-02-23T21:26:10.380Z,-1.70
2018-02-23T21:28:38.236Z,-1.80
2018-02-23T21:31:06.853Z,-1.80
2018-02-23T21:33:38.482Z,-1.80
2018-02-23T21:36:06.116Z,-1.80
2018-02-23T21:38:33.758Z,-1.80
2018-02-23T21:43:53.812Z,-1.80
2018-02-23T21:46:21.491Z,-1.90
2018-02-23T21:48:49.088Z,-1.90
2018-02-23T21:51:16.765Z,-1.90
2018-02-23T21:53:44.452Z,-1.90
2018-02-23T21:56:12.808Z,-1.90
2018-02-23T21:58:40.452Z,-2.00
2018-02-23T22:01:08.858Z,-2.00
2018-02-23T22:03:36.549Z,-2.00
2018-02-23T22:06:04.892Z,-2.00
2018-02-23T22:08:33.288Z,-2.10
2018-02-23T22:11:00.924Z,-2.10
2018-02-23T22:13:29.320Z,-2.10
2018-02-23T22:15:57.725Z,-2.20
2018-02-23T22:18:25.352Z,-2.20
2018-02-23T22:20:53.755Z,-2.20
2018-02-23T22:23:22.148Z,-2.20
2018-02-23T22:25:49.796Z,-2.20
2018-02-23T22:28:17.422Z,-2.20
2018-02-23T22:30:45.058Z,-2.30
2018-02-23T22:33:12.707Z,-2.20
2018-02-23T22:35:41.092Z,-2.30
2018-02-23T22:38:08.724Z,-2.30
2018-02-23T22:40:36.360Z,-2.30
2018-02-23T22:43:16.620Z,-2.40
2018-02-23T22:45:44.248Z,-2.30
2018-02-23T22:48:11.884Z,-2.30
2018-02-23T22:50:39.508Z,-2.40
2018-02-23T22:53:07.148Z,-2.40
2018-02-23T22:55:34.793Z,-2.40
2018-02-23T22:58:02.420Z,-2.40
2018-02-23T23:00:30.120Z,-2.50
2018-02-23T23:02:57.752Z,-2.50
2018-02-23T23:05:33.899Z,-2.50
2018-02-23T23:08:01.541Z,-2.50
2018-02-23T23:10:29.210Z,-2.50
2018-02-23T23:12:56.839Z,-2.50
2018-02-23T23:15:24.489Z,-2.50
2018-02-23T23:17:52.121Z,-2.50
2018-02-23T23:20:19.762Z,-2.50
2018-02-23T23:22:48.152Z,-2.50
2018-02-23T23:25:15.788Z,-2.50
2018-02-23T23:27:43.424Z,-2.60
2018-02-23T23:30:11.069Z,-2.60
2018-02-23T23:32:38.704Z,-2.60
2018-02-23T23:35:08.035Z,-2.60
2018-02-23T23:37:35.664Z,-2.60
2018-02-23T23:40:03.294Z,-2.60
2018-02-23T23:42:30.928Z,-2.60
2018-02-23T23:44:58.551Z,-2.60
2018-02-23T23:47:26.205Z,-2.70
2018-02-23T23:49:53.836Z,-2.70
2018-02-23T23:52:21.479Z,-2.70
2018-02-23T23:54:49.119Z,-2.70
2018-02-23T23:57:16.744Z,-2.70
2018-02-23T23:59:44.384Z,-2.70
